createdAt,value
2023-04-22T00:01:42.051Z,24.70
2023-04-22T00:04:10.309Z,24.30
2023-04-22T00:06:39.530Z,25.40
2023-04-22T00:09:07.511Z,23.80
2023-04-22T00:11:35.505Z,23.30
2023-04-22T00:14:03.447Z,21.30
2023-04-22T00:16:31.547Z,21.70
2023-04-22T00:18:59.703Z,21.00
2023-04-22T00:21:28.531Z,25.60
2023-04-22T00:23:56.745Z,21.50
2023-04-22T00:26:24.865Z,19.30
2023-04-22T00:28:52.954Z,17.00
2023-04-22T00:31:21.197Z,23.70
2023-04-22T00:33:49.134Z,21.70
2023-04-22T00:36:17.140Z,21.70
2023-04-22T00:38:50.144Z,23.30
2023-04-22T00:41:18.428Z,22.00
2023-04-22T00:43:46.847Z,20.10
2023-04-22T00:46:16.775Z,19.80
2023-04-22T00:48:45.554Z,20.70
2023-04-22T00:51:13.583Z,23.50
2023-04-22T00:53:41.551Z,18.60
2023-04-22T00:56:11.129Z,18.30
2023-04-22T00:58:39.070Z,23.80
2023-04-22T01:01:07.163Z,21.70
2023-04-22T01:03:39.225Z,17.90
2023-04-22T01:06:07.456Z,24.00
2023-04-22T01:08:35.637Z,19.60
2023-04-22T01:11:03.706Z,24.10
2023-04-22T01:13:32.649Z,19.40
2023-04-22T01:16:01.514Z,18.80
2023-04-22T01:18:29.614Z,19.30
2023-04-22T01:20:57.709Z,20.90
2023-04-22T01:23:25.914Z,19.20
2023-04-22T01:25:55.822Z,16.40
2023-04-22T01:28:24.446Z,21.10
2023-04-22T01:30:52.548Z,20.60
2023-04-22T01:33:20.757Z,16.50
2023-04-22T01:35:48.726Z,19.30
2023-04-22T01:38:16.913Z,21.90
2023-04-22T01:40:44.988Z,17.20
2023-04-22T01:43:13.006Z,16.10
2023-04-22T01:45:41.060Z,19.70
2023-04-22T01:48:09.708Z,18.20
2023-04-22T01:50:38.150Z,15.50
2023-04-22T01:53:07.785Z,21.90
2023-04-22T01:55:37.281Z,16.80
2023-04-22T01:58:05.858Z,18.10
2023-04-22T02:00:33.913Z,25.00
2023-04-22T02:03:02.196Z,18.70
2023-04-22T02:05:30.261Z,22.20
2023-04-22T02:07:58.450Z,18.90
2023-04-22T02:10:26.492Z,18.80
2023-04-22T02:12:54.555Z,19.90
2023-04-22T02:15:22.944Z,21.30
2023-04-22T02:17:53.133Z,19.80
2023-04-22T02:20:21.153Z,18.80
2023-04-22T02:22:50.886Z,18.40
2023-04-22T02:25:23.378Z,22.80
2023-04-22T02:27:51.419Z,20.90
2023-04-22T02:30:19.701Z,15.90
2023-04-22T02:32:47.895Z,21.20
2023-04-22T02:35:16.073Z,23.50
2023-04-22T02:37:44.152Z,20.90
2023-04-22T02:40:12.453Z,19.90
2023-04-22T02:42:40.615Z,21.60
2023-04-22T02:45:09.080Z,26.10
2023-04-22T02:47:37.419Z,23.40
2023-04-22T02:50:07.373Z,20.50
2023-04-22T02:52:35.592Z,18.70
2023-04-22T02:55:04.697Z,19.30
2023-04-22T02:57:32.714Z,20.10
2023-04-22T03:00:00.929Z,18.40
2023-04-22T03:02:29.131Z,17.00
2023-04-22T03:05:13.170Z,18.50
2023-04-22T03:07:41.436Z,19.90
2023-04-22T03:10:09.723Z,16.40
2023-04-22T03:12:37.746Z,14.50
2023-04-22T03:15:06.867Z,17.80
2023-04-22T03:17:36.171Z,16.70
2023-04-22T03:20:06.719Z,18.70
2023-04-22T03:22:34.935Z,18.60
2023-04-22T03:25:03.827Z,14.80
2023-04-22T03:27:33.094Z,16.30
2023-04-22T03:30:01.369Z,16.20
2023-04-22T03:32:29.586Z,17.70
2023-04-22T03:35:20.707Z,16.70
2023-04-22T03:37:50.226Z,17.80
2023-04-22T03:40:22.057Z,16.40
2023-04-22T03:42:50.651Z,15.10
2023-04-22T03:45:20.009Z,13.70
2023-04-22T03:47:53.999Z,17.10
2023-04-22T03:50:26.703Z,15.60
2023-04-22T03:52:55.146Z,17.80
2023-04-22T03:55:24.307Z,17.20
2023-04-22T03:57:53.510Z,16.90
2023-04-22T04:00:22.190Z,15.60
2023-04-22T04:02:54.326Z,16.30
2023-04-22T04:05:25.450Z,15.10
2023-04-22T04:07:53.604Z,18.40
2023-04-22T04:10:21.575Z,19.10
2023-04-22T04:12:50.064Z,20.80
2023-04-22T04:15:21.502Z,15.60
2023-04-22T04:17:50.756Z,16.30
2023-04-22T04:20:19.944Z,16.00
2023-04-22T04:22:48.010Z,14.20
2023-04-22T04:25:16.096Z,14.20
2023-04-22T04:27:45.667Z,17.20
2023-04-22T04:30:14.730Z,17.60
2023-04-22T04:32:46.094Z,14.80
2023-04-22T04:35:15.484Z,16.40
2023-04-22T04:37:48.539Z,21.70
2023-04-22T04:40:16.868Z,18.20
2023-04-22T04:42:53.139Z,20.80
2023-04-22T04:45:25.103Z,19.70
2023-04-22T04:47:55.009Z,16.90
2023-04-22T04:50:30.548Z,30.40
2023-04-22T04:53:01.639Z,29.20
2023-04-22T04:55:35.443Z,24.00
2023-04-22T04:58:07.991Z,15.70
2023-04-22T05:00:36.219Z,15.60
2023-04-22T05:03:04.462Z,24.80
2023-04-22T05:05:33.995Z,16.00
2023-04-22T05:08:02.083Z,19.70
2023-04-22T05:10:31.210Z,17.00
2023-04-22T05:13:00.142Z,19.00
2023-04-22T05:15:30.496Z,18.70
2023-04-22T05:17:58.563Z,19.50
2023-04-22T05:20:26.623Z,22.10
2023-04-22T05:22:55.102Z,20.30
2023-04-22T05:25:23.381Z,19.10
2023-04-22T05:27:59.074Z,18.70
2023-04-22T05:30:28.117Z,15.20
2023-04-22T05:32:56.476Z,21.50
2023-04-22T05:35:24.930Z,24.20
2023-04-22T05:37:53.642Z,20.70
2023-04-22T05:40:21.757Z,20.20
2023-04-22T05:42:49.786Z,23.00
2023-04-22T05:45:17.888Z,19.60
2023-04-22T05:47:46.269Z,20.30
2023-04-22T05:50:15.451Z,21.00
2023-04-22T05:53:03.391Z,23.80
2023-04-22T05:55:31.508Z,21.40
2023-04-22T05:58:00.071Z,21.80
2023-04-22T06:00:47.004Z,33.10
2023-04-22T06:03:28.392Z,26.00
2023-04-22T06:05:57.779Z,29.00
2023-04-22T06:08:27.547Z,20.30
2023-04-22T06:10:55.853Z,33.10
2023-04-22T06:13:24.223Z,30.90
2023-04-22T06:15:52.779Z,20.20
2023-04-22T06:18:21.019Z,20.40
2023-04-22T06:20:51.939Z,20.80
2023-04-22T06:23:20.083Z,21.50
2023-04-22T06:25:49.069Z,22.10
2023-04-22T06:28:17.408Z,22.60
2023-04-22T06:30:45.984Z,26.80
2023-04-22T06:33:14.181Z,25.10
2023-04-22T06:35:42.337Z,23.50
2023-04-22T06:38:11.203Z,19.90
2023-04-22T06:40:45.726Z,20.50
2023-04-22T06:43:20.243Z,21.80
2023-04-22T06:46:07.149Z,22.50
2023-04-22T06:49:07.328Z,22.80
2023-04-22T06:51:53.741Z,26.30
2023-04-22T06:54:22.225Z,22.90
2023-04-22T06:56:51.713Z,14.90
2023-04-22T06:59:20.060Z,15.20
2023-04-22T07:01:49.318Z,87.10
2023-04-22T07:04:17.662Z,19.30
2023-04-22T07:06:46.141Z,21.10
2023-04-22T07:09:14.494Z,17.70
2023-04-22T07:11:44.011Z,23.90
2023-04-22T07:14:18.115Z,18.50
2023-04-22T07:16:47.075Z,19.50
2023-04-22T07:19:15.390Z,18.90
2023-04-22T07:21:44.124Z,16.40
2023-04-22T07:24:13.522Z,15.60
2023-04-22T07:26:45.669Z,17.60
2023-04-22T07:29:14.286Z,16.00
2023-04-22T07:31:43.427Z,16.00
2023-04-22T07:34:12.259Z,20.00
2023-04-22T07:36:40.680Z,16.50
2023-04-22T07:39:09.790Z,18.00
2023-04-22T07:41:37.840Z,17.50
2023-04-22T07:44:06.004Z,18.80
2023-04-22T07:46:34.686Z,28.40
2023-04-22T07:49:02.685Z,20.10
2023-04-22T07:51:30.819Z,19.10
2023-04-22T07:53:58.926Z,19.60
2023-04-22T07:56:28.202Z,27.40
2023-04-22T07:58:58.687Z,24.40
2023-04-22T08:01:26.904Z,20.80
2023-04-22T08:03:55.948Z,20.80
2023-04-22T08:06:25.520Z,15.10
2023-04-22T08:08:54.142Z,18.60
2023-04-22T08:11:22.308Z,16.60
2023-04-22T08:13:50.678Z,21.70
2023-04-22T08:16:19.567Z,18.80
2023-04-22T08:18:47.806Z,16.00
2023-04-22T08:21:16.349Z,11.30
2023-04-22T08:23:46.495Z,12.00
2023-04-22T08:26:16.361Z,12.90
2023-04-22T08:28:44.625Z,12.50
2023-04-22T08:31:13.246Z,11.70
2023-04-22T08:33:42.088Z,16.00
2023-04-22T08:36:11.478Z,11.20
2023-04-22T08:38:39.734Z,12.10
2023-04-22T08:41:08.661Z,9.80
2023-04-22T08:43:37.565Z,10.60
2023-04-22T08:46:05.993Z,8.70
2023-04-22T08:48:34.415Z,9.40
2023-04-22T08:51:03.870Z,11.00
2023-04-22T08:53:32.119Z,9.40
2023-04-22T08:56:01.442Z,9.80
2023-04-22T08:58:31.005Z,9.00
2023-04-22T09:01:03.183Z,11.20
2023-04-22T09:03:32.125Z,16.30
2023-04-22T09:06:04.509Z,7.50
2023-04-22T09:08:33.662Z,8.60
2023-04-22T09:11:04.045Z,9.50
2023-04-22T09:13:32.407Z,7.60
2023-04-22T09:16:00.670Z,7.90
2023-04-22T09:18:29.410Z,8.40
2023-04-22T09:20:57.771Z,6.00
2023-04-22T09:23:26.592Z,9.10
2023-04-22T09:25:58.319Z,13.20
2023-04-22T09:28:26.565Z,8.00
2023-04-22T09:30:54.642Z,11.00
2023-04-22T09:33:27.982Z,9.20
2023-04-22T09:35:56.335Z,8.10
2023-04-22T09:38:31.120Z,7.70
2023-04-22T09:40:59.232Z,6.90
2023-04-22T09:43:27.303Z,10.00
2023-04-22T09:46:00.193Z,7.10
2023-04-22T09:48:28.396Z,5.10
2023-04-22T09:50:56.702Z,9.50
2023-04-22T09:53:24.934Z,9.20
2023-04-22T09:55:54.913Z,8.20
2023-04-22T09:58:28.167Z,11.70
2023-04-22T10:00:59.221Z,6.50
2023-04-22T10:03:27.439Z,7.60
2023-04-22T10:05:55.740Z,9.90
2023-04-22T10:08:24.402Z,5.40
2023-04-22T10:10:53.751Z,7.80
2023-04-22T10:13:23.062Z,6.10
2023-04-22T10:15:53.755Z,5.00
2023-04-22T10:18:24.916Z,15.90
2023-04-22T10:20:54.598Z,7.90
2023-04-22T10:23:24.852Z,7.60
2023-04-22T10:25:56.232Z,7.70
2023-04-22T10:28:28.459Z,9.00
2023-04-22T10:30:56.932Z,5.60
2023-04-22T10:33:28.661Z,6.90
2023-04-22T10:36:11.768Z,7.00
2023-04-22T10:38:42.983Z,4.80
2023-04-22T10:41:15.622Z,5.80
2023-04-22T10:43:48.961Z,5.50
2023-04-22T10:46:37.917Z,5.90
2023-04-22T10:49:08.849Z,5.20
2023-04-22T10:51:48.455Z,5.00
2023-04-22T10:54:37.928Z,6.50
2023-04-22T10:57:13.131Z,6.60
2023-04-22T10:59:50.490Z,9.80
2023-04-22T11:02:21.982Z,5.00
2023-04-22T11:04:52.321Z,10.50
2023-04-22T11:07:27.027Z,9.40
2023-04-22T11:10:10.761Z,4.50
2023-04-22T11:12:43.197Z,4.80
2023-04-22T11:15:20.516Z,5.70
2023-04-22T11:17:56.014Z,10.00
2023-04-22T11:20:25.534Z,4.90
2023-04-22T11:22:55.658Z,4.40
2023-04-22T11:25:25.740Z,4.50
2023-04-22T11:27:58.063Z,3.90
2023-04-22T11:30:27.638Z,5.90
2023-04-22T11:32:59.432Z,5.90
2023-04-22T11:35:33.222Z,5.50
2023-04-22T11:38:04.344Z,9.50
2023-04-22T11:40:42.782Z,5.60
2023-04-22T11:43:13.970Z,5.00
2023-04-22T11:45:42.603Z,9.30
2023-04-22T11:48:12.183Z,8.30
2023-04-22T11:50:42.414Z,4.30
2023-04-22T11:53:13.227Z,5.50
2023-04-22T11:55:44.546Z,7.20
2023-04-22T11:58:18.728Z,6.20
2023-04-22T12:00:51.593Z,5.10
2023-04-22T12:03:21.494Z,7.40
2023-04-22T12:06:01.811Z,7.60
2023-04-22T12:08:44.510Z,3.90
2023-04-22T12:11:12.838Z,4.90
2023-04-22T12:13:43.833Z,3.10
2023-04-22T12:16:19.773Z,6.50
2023-04-22T12:18:52.795Z,18.30
2023-04-22T12:21:28.544Z,7.20
2023-04-22T12:24:08.612Z,11.60
2023-04-22T12:26:40.898Z,5.40
2023-04-22T12:29:08.946Z,4.00
2023-04-22T12:31:38.830Z,7.00
2023-04-22T12:34:07.393Z,6.60
2023-04-22T12:36:35.487Z,5.20
2023-04-22T12:39:04.915Z,7.70
2023-04-22T12:41:33.094Z,5.10
2023-04-22T12:44:05.948Z,4.10
2023-04-22T12:46:36.124Z,5.70
2023-04-22T12:49:05.163Z,3.70
2023-04-22T12:51:33.455Z,4.90
2023-04-22T12:54:02.669Z,6.80
2023-04-22T12:56:31.041Z,5.20
2023-04-22T12:59:03.313Z,4.10
2023-04-22T13:01:33.797Z,8.60
2023-04-22T13:04:05.528Z,7.90
2023-04-22T13:06:34.877Z,3.30
2023-04-22T13:09:03.692Z,3.70
2023-04-22T13:11:32.308Z,3.80
2023-04-22T13:14:01.409Z,5.00
2023-04-22T13:16:30.496Z,6.20
2023-04-22T13:18:58.763Z,6.00
2023-04-22T13:21:29.675Z,5.80
2023-04-22T13:23:58.032Z,5.80
2023-04-22T13:26:27.796Z,4.10
2023-04-22T13:28:56.228Z,5.30
2023-04-22T13:31:25.226Z,4.30
2023-04-22T13:33:53.466Z,3.50
2023-04-22T13:36:21.837Z,4.10
2023-04-22T13:38:51.252Z,5.50
2023-04-22T13:41:20.275Z,3.20
2023-04-22T13:43:54.554Z,3.60
2023-04-22T13:46:24.026Z,6.40
2023-04-22T13:48:52.170Z,5.90
2023-04-22T13:51:22.643Z,4.70
2023-04-22T13:53:50.951Z,6.50
2023-04-22T13:56:19.705Z,3.90
2023-04-22T13:58:47.869Z,3.80
2023-04-22T14:01:17.967Z,4.10
2023-04-22T14:03:49.442Z,6.00
2023-04-22T14:06:18.304Z,9.20
2023-04-22T14:08:46.583Z,4.80
2023-04-22T14:11:14.975Z,3.50
2023-04-22T14:13:43.102Z,4.20
2023-04-22T14:16:12.087Z,12.00
2023-04-22T14:18:41.232Z,8.80
2023-04-22T14:21:10.033Z,6.60
2023-04-22T14:23:42.024Z,6.20
2023-04-22T14:26:12.778Z,7.20
2023-04-22T14:28:41.935Z,5.30
2023-04-22T14:31:10.484Z,4.20
2023-04-22T14:33:39.418Z,6.40
2023-04-22T14:36:07.838Z,6.40
2023-04-22T14:38:35.943Z,8.10
2023-04-22T14:41:06.138Z,6.20
2023-04-22T14:43:34.515Z,4.80
2023-04-22T14:46:02.660Z,7.90
2023-04-22T14:48:32.387Z,6.10
2023-04-22T14:51:01.066Z,7.80
2023-04-22T14:53:29.198Z,6.40
2023-04-22T14:55:57.359Z,5.80
2023-04-22T14:58:27.285Z,4.70
2023-04-22T15:00:55.376Z,5.50
2023-04-22T15:03:24.023Z,8.60
2023-04-22T15:05:52.875Z,3.90
2023-04-22T15:08:21.828Z,8.30
2023-04-22T15:10:49.899Z,5.20
2023-04-22T15:13:20.022Z,5.60
2023-04-22T15:15:48.197Z,3.90
2023-04-22T15:18:19.333Z,7.50
2023-04-22T15:20:49.248Z,5.70
2023-04-22T15:23:17.265Z,4.90
2023-04-22T15:25:46.101Z,5.50
2023-04-22T15:28:14.137Z,8.60
2023-04-22T15:30:42.782Z,5.90
2023-04-22T15:33:10.865Z,4.80
2023-04-22T15:35:39.106Z,3.50
2023-04-22T15:38:07.301Z,5.10
2023-04-22T15:40:35.332Z,4.70
2023-04-22T15:43:03.728Z,4.10
2023-04-22T15:45:36.475Z,4.80
2023-04-22T15:48:06.429Z,4.20
2023-04-22T15:50:34.738Z,7.30
2023-04-22T15:53:02.893Z,6.20
2023-04-22T15:55:31.242Z,8.40
2023-04-22T15:58:02.793Z,6.80
2023-04-22T16:00:34.407Z,9.10
2023-04-22T16:03:03.828Z,8.90
2023-04-22T16:05:34.908Z,8.70
2023-04-22T16:08:04.226Z,11.00
2023-04-22T16:10:35.007Z,15.10
2023-04-22T16:13:03.347Z,8.30
2023-04-22T16:15:31.696Z,9.00
2023-04-22T16:18:00.066Z,10.00
2023-04-22T16:20:28.233Z,11.00
2023-04-22T16:22:56.389Z,7.10
2023-04-22T16:25:24.788Z,7.10
2023-04-22T16:27:52.898Z,11.00
2023-04-22T16:30:22.238Z,8.20
2023-04-22T16:32:50.721Z,7.90
2023-04-22T16:35:18.885Z,6.10
2023-04-22T16:37:47.629Z,11.30
2023-04-22T16:40:15.903Z,13.10
2023-04-22T16:42:45.447Z,12.00
2023-04-22T16:45:13.561Z,10.70
2023-04-22T16:47:42.120Z,13.10
2023-04-22T16:50:12.370Z,11.20
2023-04-22T16:52:40.519Z,15.00
2023-04-22T16:55:08.991Z,8.30
2023-04-22T16:57:37.173Z,8.80
2023-04-22T17:00:08.781Z,11.10
2023-04-22T17:02:37.414Z,8.40
2023-04-22T17:05:06.164Z,10.30
2023-04-22T17:07:34.131Z,11.60
2023-04-22T17:10:02.260Z,10.60
2023-04-22T17:12:31.263Z,11.40
2023-04-22T17:15:00.868Z,9.40
2023-04-22T17:17:29.327Z,13.00
2023-04-22T17:19:57.559Z,12.70
2023-04-22T17:22:26.159Z,14.30
2023-04-22T17:24:56.720Z,15.40
2023-04-22T17:27:26.849Z,13.90
2023-04-22T17:29:55.216Z,23.70
2023-04-22T17:32:23.408Z,15.80
2023-04-22T17:34:51.557Z,18.40
2023-04-22T17:37:19.616Z,22.60
2023-04-22T17:39:47.737Z,32.30
2023-04-22T17:42:16.303Z,29.00
2023-04-22T17:44:47.074Z,22.10
2023-04-22T17:47:15.715Z,20.20
2023-04-22T17:49:46.236Z,20.50
2023-04-22T17:52:14.552Z,18.70
2023-04-22T17:54:43.776Z,21.40
2023-04-22T17:57:12.430Z,20.80
2023-04-22T17:59:40.921Z,28.20
2023-04-22T18:02:12.074Z,27.30
2023-04-22T18:04:40.538Z,24.40
2023-04-22T18:07:08.691Z,30.90
2023-04-22T18:09:39.422Z,25.30
2023-04-22T18:12:07.777Z,30.70
2023-04-22T18:14:36.275Z,34.10
2023-04-22T18:17:07.149Z,39.10
2023-04-22T18:19:36.207Z,29.70
2023-04-22T18:22:04.200Z,25.30
2023-04-22T18:24:33.571Z,27.70
2023-04-22T18:27:02.911Z,12.50
2023-04-22T18:29:31.940Z,15.30
2023-04-22T18:31:59.998Z,15.80
2023-04-22T18:34:29.261Z,15.90
2023-04-22T18:36:57.263Z,23.10
2023-04-22T18:39:25.708Z,25.90
2023-04-22T18:41:53.712Z,21.70
2023-04-22T18:44:24.089Z,26.30
2023-04-22T18:46:54.896Z,18.70
2023-04-22T18:49:22.915Z,15.50
2023-04-22T18:51:51.031Z,13.40
2023-04-22T18:54:19.093Z,15.10
2023-04-22T18:56:47.161Z,15.70
2023-04-22T18:59:15.402Z,19.70
2023-04-22T19:01:44.526Z,14.90
2023-04-22T19:04:13.239Z,16.00
2023-04-22T19:06:42.040Z,17.40
2023-04-22T19:09:10.328Z,12.90
2023-04-22T19:11:38.653Z,16.20
2023-04-22T19:14:08.558Z,13.90
2023-04-22T19:16:36.750Z,16.10
2023-04-22T19:19:05.007Z,17.10
2023-04-22T19:21:36.016Z,14.10
2023-04-22T19:24:05.013Z,14.20
2023-04-22T19:26:35.857Z,13.30
2023-04-22T19:29:06.634Z,16.10
2023-04-22T19:31:34.828Z,18.70
2023-04-22T19:34:05.531Z,17.00
2023-04-22T19:36:33.986Z,19.70
2023-04-22T19:39:02.027Z,22.00
2023-04-22T19:41:31.086Z,17.60
2023-04-22T19:43:59.463Z,17.90
2023-04-22T19:46:30.381Z,16.40
2023-04-22T19:48:59.083Z,18.30
2023-04-22T19:51:27.694Z,16.40
2023-04-22T19:53:58.052Z,20.50
2023-04-22T19:56:26.787Z,19.20
2023-04-22T19:58:55.844Z,16.50
2023-04-22T20:01:24.122Z,20.30
2023-04-22T20:03:53.154Z,18.90
2023-04-22T20:06:22.739Z,16.20
2023-04-22T20:08:53.811Z,18.20
2023-04-22T20:11:21.992Z,14.90
2023-04-22T20:13:51.152Z,15.90
2023-04-22T20:16:20.938Z,15.50
2023-04-22T20:18:52.329Z,15.10
2023-04-22T20:21:20.573Z,17.00
2023-04-22T20:23:51.221Z,19.60
2023-04-22T20:26:20.239Z,19.00
2023-04-22T20:28:52.062Z,13.60
2023-04-22T20:31:22.877Z,17.70
2023-04-22T20:33:51.721Z,14.80
2023-04-22T20:36:20.488Z,15.70
2023-04-22T20:38:51.031Z,19.70
2023-04-22T20:41:20.245Z,21.10
2023-04-22T20:43:48.399Z,18.90
2023-04-22T20:46:16.848Z,26.40
2023-04-22T20:48:45.011Z,20.10
2023-04-22T20:51:13.127Z,20.70
2023-04-22T20:53:41.202Z,29.60
2023-04-22T20:56:09.997Z,23.80
2023-04-22T20:58:38.621Z,27.30
2023-04-22T21:01:08.024Z,25.60
2023-04-22T21:03:39.371Z,22.00
2023-04-22T21:06:09.364Z,23.60
2023-04-22T21:08:39.911Z,26.40
2023-04-22T21:11:08.354Z,27.60
2023-04-22T21:13:39.579Z,29.60
2023-04-22T21:16:11.113Z,26.00
2023-04-22T21:18:43.179Z,28.70
2023-04-22T21:21:12.475Z,27.30
2023-04-22T21:23:42.252Z,22.10
2023-04-22T21:26:10.635Z,25.00
2023-04-22T21:28:39.258Z,32.10
2023-04-22T21:31:08.549Z,30.70
2023-04-22T21:33:40.811Z,25.40
2023-04-22T21:36:12.051Z,25.40
2023-04-22T21:38:41.777Z,30.40
2023-04-22T21:41:10.779Z,26.60
2023-04-22T21:43:41.836Z,30.40
2023-04-22T21:46:09.774Z,27.10
2023-04-22T21:48:37.696Z,27.10
2023-04-22T21:51:05.778Z,34.30
2023-04-22T21:53:33.969Z,26.50
2023-04-22T21:56:02.048Z,28.60
2023-04-22T21:58:31.915Z,25.00
2023-04-22T22:01:00.031Z,27.20
2023-04-22T22:03:28.269Z,23.30
2023-04-22T22:05:56.934Z,24.60
2023-04-22T22:08:24.896Z,25.00
2023-04-22T22:10:52.988Z,26.50
2023-04-22T22:13:21.038Z,32.00
2023-04-22T22:15:49.149Z,30.80
2023-04-22T22:18:17.181Z,29.10
2023-04-22T22:20:45.279Z,28.60
2023-04-22T22:23:16.272Z,28.50
2023-04-22T22:25:45.663Z,28.20
2023-04-22T22:28:14.855Z,27.00
2023-04-22T22:30:43.378Z,30.20
2023-04-22T22:33:11.544Z,21.90
2023-04-22T22:35:39.680Z,28.60
2023-04-22T22:38:07.863Z,25.60
2023-04-22T22:40:35.825Z,26.30
2023-04-22T22:43:04.180Z,23.10
2023-04-22T22:45:32.272Z,27.70
2023-04-22T22:48:00.924Z,22.10
2023-04-22T22:50:28.993Z,22.50
2023-04-22T22:52:57.152Z,27.30
2023-04-22T22:55:26.433Z,26.50
2023-04-22T22:57:54.394Z,24.40
2023-04-22T23:00:22.446Z,24.60
2023-04-22T23:02:50.757Z,22.70
2023-04-22T23:05:18.931Z,23.90
2023-04-22T23:07:48.708Z,26.00
2023-04-22T23:10:17.876Z,26.90
2023-04-22T23:12:46.039Z,23.50
2023-04-22T23:15:14.277Z,23.40
2023-04-22T23:17:42.567Z,21.60
2023-04-22T23:20:11.693Z,21.90
2023-04-22T23:22:40.712Z,26.40
2023-04-22T23:25:10.862Z,23.60
2023-04-22T23:27:39.099Z,25.60
2023-04-22T23:30:07.974Z,29.10
2023-04-22T23:32:39.663Z,28.00
2023-04-22T23:35:08.662Z,26.60
2023-04-22T23:37:38.180Z,26.10
2023-04-22T23:40:07.388Z,27.90
2023-04-22T23:42:36.829Z,24.80
2023-04-22T23:45:05.380Z,27.70
2023-04-22T23:47:33.440Z,29.20
2023-04-22T23:50:01.627Z,24.30
2023-04-22T23:52:29.878Z,23.10
2023-04-22T23:54:58.127Z,23.20
2023-04-22T23:57:26.352Z,20.70
2023-04-22T23:59:54.831Z,20.60
